Time;durP1;ratioP1;P1;durP2;ratioP2;P2;SDS_P1;SDS_P2;PMS_P1;PMS_P2;Temp;Humidity;BMP_temperature;BMP_pressure;BME280_temperature;BME280_humidity;BME280_pressure;Samples;Min_cycle;Max_cycle;Signal;HPM_P1;HPM_P2
2024/01/22 00:02:11;;;;;;;9.82;2.70;;;10.60;99.90;;;;;;10550665;27;20050;-66
2024/01/22 00:07:13;;;;;;;12.70;2.53;;;10.90;99.90;;;;;;10552881;27;20052;-65
2024/01/22 00:12:16;;;;;;;3.97;2.20;;;11.40;99.90;;;;;;10557297;27;20064;-64
2024/01/22 00:17:18;;;;;;;6.00;2.95;;;10.70;99.90;;;;;;10550060;28;20043;-65
2024/01/22 00:22:20;;;;;;;9.48;3.63;;;11.10;99.90;;;;;;10550440;28;20051;-64
2024/01/22 00:27:23;;;;;;;5.97;3.05;;;10.40;99.90;;;;;;10554923;28;20450;-64
2024/01/22 00:32:25;;;;;;;13.80;4.78;;;10.40;99.90;;;;;;10559183;27;22461;-64
2024/01/22 00:37:27;;;;;;;10.60;4.72;;;10.30;99.90;;;;;;10555329;27;20658;-65
2024/01/22 00:42:31;;;;;;;10.23;3.70;;;10.70;99.90;;;;;;10556874;27;20048;-65
2024/01/22 00:47:33;;;;;;;10.48;4.28;;;10.60;99.90;;;;;;10558525;27;20040;-65
2024/01/22 00:52:35;;;;;;;11.80;5.43;;;10.90;99.90;;;;;;10558157;27;20412;-66
2024/01/22 00:57:38;;;;;;;11.52;4.28;;;10.30;99.90;;;;;;10556459;27;20109;-65
2024/01/22 01:02:40;;;;;;;0.10;0.10;;;10.20;99.90;;;;;;10557645;27;20039;-65
2024/01/22 01:07:42;;;;;;;3.25;1.75;;;10.80;99.90;;;;;;10561008;27;20055;-65
2024/01/22 01:12:46;;;;;;;6.53;2.50;;;10.50;99.90;;;;;;10565748;27;20059;-65
2024/01/22 01:17:48;;;;;;;6.60;3.20;;;11.10;99.90;;;;;;10552473;27;20499;-64
2024/01/22 01:22:50;;;;;;;8.02;3.72;;;10.70;99.90;;;;;;10549046;27;20054;-65
2024/01/22 01:27:53;;;;;;;6.07;2.25;;;10.40;99.90;;;;;;10552825;27;20131;-66
2024/01/22 01:32:55;;;;;;;8.18;2.67;;;10.70;99.90;;;;;;10548631;27;20059;-65
2024/01/22 01:37:57;;;;;;;6.10;3.15;;;10.90;99.90;;;;;;10550510;27;20109;-65
2024/01/22 01:43:01;;;;;;;1.38;1.02;;;10.40;99.90;;;;;;10542774;27;20055;-66
2024/01/22 01:48:03;;;;;;;6.88;2.30;;;10.70;99.90;;;;;;10551901;27;20047;-64
2024/01/22 01:53:06;;;;;;;4.05;2.08;;;10.70;99.90;;;;;;10549727;27;20112;-65
2024/01/22 01:58:14;;;;;;;4.95;2.22;;;10.70;99.90;;;;;;10548358;27;20031;-65
2024/01/22 02:03:16;;;;;;;0.10;0.10;;;10.50;99.90;;;;;;10552281;27;20070;-65
2024/01/22 02:08:18;;;;;;;0.10;0.10;;;10.70;99.90;;;;;;10549625;27;20057;-64
2024/01/22 02:13:21;;;;;;;0.10;0.10;;;11.00;99.90;;;;;;10555254;27;20054;-66
2024/01/22 02:18:23;;;;;;;0.10;0.10;;;10.90;99.90;;;;;;10551312;27;20941;-64
2024/01/22 02:23:27;;;;;;;18.42;2.65;;;10.50;99.90;;;;;;10555820;27;20051;-66
2024/01/22 02:28:31;;;;;;;8.15;3.05;;;10.40;99.90;;;;;;10549166;27;20225;-65
2024/01/22 02:33:33;;;;;;;6.38;2.47;;;10.40;99.90;;;;;;10549205;27;20051;-65
2024/01/22 02:38:36;;;;;;;5.22;2.65;;;10.60;99.90;;;;;;10549113;27;20051;-66
2024/01/22 02:43:38;;;;;;;0.10;0.10;;;10.50;99.90;;;;;;10550591;27;20050;-64
2024/01/22 02:48:41;;;;;;;3.85;2.30;;;10.70;99.90;;;;;;10552866;27;20496;-64
2024/01/22 02:53:44;;;;;;;4.03;2.00;;;10.60;99.90;;;;;;10552673;27;20070;-64
2024/01/22 02:58:46;;;;;;;9.98;1.52;;;10.60;99.90;;;;;;10550187;27;20043;-64
2024/01/22 03:03:49;;;;;;;0.20;0.20;;;10.50;99.90;;;;;;10554598;27;20059;-65
2024/01/22 03:08:52;;;;;;;4.70;2.57;;;10.50;99.90;;;;;;10551051;27;20505;-65
2024/01/22 03:13:54;;;;;;;4.80;1.73;;;10.80;99.90;;;;;;10549321;27;20659;-64
2024/01/22 03:18:56;;;;;;;2.60;1.55;;;10.70;99.90;;;;;;10550620;27;20046;-64
2024/01/22 03:24:00;;;;;;;0.20;0.20;;;10.40;99.90;;;;;;10553284;27;20060;-65
2024/01/22 03:29:02;;;;;;;0.13;0.13;;;10.60;99.90;;;;;;10550254;27;20410;-64
2024/01/22 03:34:04;;;;;;;0.10;0.10;;;10.30;99.90;;;;;;10544737;27;20051;-65
2024/01/22 03:39:07;;;;;;;0.10;0.10;;;10.60;99.90;;;;;;10543750;27;20062;-64
2024/01/22 03:44:09;;;;;;;3.60;2.00;;;10.30;99.90;;;;;;10544101;27;20962;-65
2024/01/22 03:49:11;;;;;;;10.45;3.15;;;10.30;99.90;;;;;;10548444;27;20544;-65
2024/01/22 03:54:15;;;;;;;2.28;2.08;;;10.30;99.90;;;;;;10550094;27;20248;-65
2024/01/22 03:59:18;;;;;;;5.45;3.22;;;10.60;99.90;;;;;;10532753;27;20131;-64
2024/01/22 04:15:32;;;;;;;6.78;3.70;;;10.20;99.90;;;;;;10535524;27;20985;-64
2024/01/22 04:20:34;;;;;;;3.08;2.72;;;10.30;99.90;;;;;;10558604;28;20820;-64
2024/01/22 04:25:36;;;;;;;3.73;2.93;;;10.40;99.90;;;;;;10560835;28;20075;-64
2024/01/22 04:30:40;;;;;;;4.40;2.23;;;10.50;99.90;;;;;;10561108;28;20237;-64
2024/01/22 04:35:42;;;;;;;3.33;2.10;;;10.50;99.90;;;;;;10556915;28;20596;-64
2024/01/22 04:40:44;;;;;;;5.13;2.50;;;10.50;99.90;;;;;;10551714;28;21324;-65
2024/01/22 04:45:48;;;;;;;3.43;2.00;;;10.60;99.90;;;;;;10552714;28;20052;-64
2024/01/22 04:50:50;;;;;;;3.00;1.83;;;10.60;99.90;;;;;;10560873;28;20054;-65
2024/01/22 04:55:52;;;;;;;8.63;2.80;;;10.50;99.90;;;;;;10556675;27;20054;-64
2024/01/22 05:00:55;;;;;;;9.43;2.45;;;10.70;99.90;;;;;;10556508;28;20542;-65
2024/01/22 05:05:58;;;;;;;9.45;3.00;;;10.80;99.90;;;;;;10554355;28;20047;-64
2024/01/22 05:11:00;;;;;;;11.23;2.53;;;10.80;99.90;;;;;;10558051;28;20090;-66
2024/01/22 05:16:03;;;;;;;18.55;3.75;;;11.00;99.90;;;;;;10556248;28;20050;-64
2024/01/22 05:21:05;;;;;;;28.83;6.13;;;11.10;99.90;;;;;;10550243;28;20051;-67
2024/01/22 05:26:08;;;;;;;44.17;6.65;;;11.20;99.90;;;;;;10526623;28;20040;-65
2024/01/22 05:31:11;;;;;;;49.13;7.83;;;11.20;99.90;;;;;;10532426;28;20672;-65
2024/01/22 05:36:13;;;;;;;39.92;7.50;;;11.20;99.90;;;;;;10520099;28;20489;-65
2024/01/22 05:41:16;;;;;;;47.88;7.82;;;11.00;99.90;;;;;;10525647;28;20052;-66
2024/01/22 05:46:19;;;;;;;44.22;8.23;;;11.00;99.90;;;;;;10524059;28;20083;-65
2024/01/22 05:51:21;;;;;;;43.38;7.85;;;10.90;99.90;;;;;;10527787;28;20197;-65
2024/01/22 05:56:25;;;;;;;62.08;15.45;;;10.80;99.90;;;;;;10518695;28;20048;-64
2024/01/22 06:01:29;;;;;;;46.15;9.00;;;10.80;99.90;;;;;;10524697;28;20048;-65
2024/01/22 06:06:32;;;;;;;46.40;8.15;;;10.80;99.90;;;;;;10530218;28;20098;-66
2024/01/22 06:11:34;;;;;;;42.67;10.40;;;10.70;99.90;;;;;;10509521;28;20056;-64
2024/01/22 06:16:37;;;;;;;45.58;9.32;;;10.90;99.90;;;;;;10522206;28;20085;-65
2024/01/22 06:21:39;;;;;;;44.85;8.13;;;10.90;99.90;;;;;;10533849;28;20518;-65
2024/01/22 06:26:41;;;;;;;63.45;12.00;;;10.90;99.90;;;;;;10519826;28;20048;-64
2024/01/22 06:31:44;;;;;;;53.72;10.25;;;11.10;99.90;;;;;;10519424;28;20083;-66
2024/01/22 06:36:46;;;;;;;66.47;13.90;;;11.20;99.90;;;;;;10519702;28;20055;-64
2024/01/22 06:41:48;;;;;;;60.83;11.55;;;11.10;99.90;;;;;;10523414;28;20224;-63
2024/01/22 06:46:51;;;;;;;88.97;16.75;;;10.80;99.90;;;;;;10516932;28;20060;-64
2024/01/22 06:51:53;;;;;;;75.65;12.63;;;10.60;99.90;;;;;;10531052;28;20050;-64
2024/01/22 06:56:55;;;;;;;90.80;18.05;;;10.60;99.90;;;;;;10523018;28;20051;-64
2024/01/22 07:01:59;;;;;;;78.38;12.23;;;10.70;99.90;;;;;;10523375;28;20819;-64
2024/01/22 07:07:03;;;;;;;89.88;17.63;;;10.70;99.90;;;;;;10520354;28;20048;-65
2024/01/22 07:12:05;;;;;;;97.90;17.88;;;10.60;99.90;;;;;;10518896;28;20052;-63
2024/01/22 07:17:09;;;;;;;93.85;21.27;;;10.50;99.90;;;;;;10521944;28;20048;-66
2024/01/22 07:22:11;;;;;;;102.47;19.27;;;10.60;99.90;;;;;;10513702;28;20052;-65
2024/01/22 07:27:14;;;;;;;101.67;15.33;;;10.40;99.90;;;;;;10529222;28;20827;-64
2024/01/22 07:32:20;;;;;;;96.15;14.63;;;10.30;99.90;;;;;;10520161;28;20561;-67
2024/01/22 07:37:23;;;;;;;87.50;14.32;;;10.20;99.90;;;;;;10520966;28;20481;-65
2024/01/22 07:42:25;;;;;;;;;;;10.30;99.90;;;;;;10523277;28;20419;-65
2024/01/22 07:47:29;;;;;;;106.63;18.65;;;10.30;99.90;;;;;;10515582;28;19931;-65
2024/01/22 07:52:31;;;;;;;130.85;16.58;;;10.20;99.90;;;;;;10514576;28;20052;-64
2024/01/22 07:57:33;;;;;;;97.97;13.30;;;10.00;99.90;;;;;;10516184;28;20139;-64
2024/01/22 08:02:37;;;;;;;106.18;15.38;;;9.90;99.90;;;;;;10506468;28;20200;-64
2024/01/22 08:07:40;;;;;;;149.27;22.23;;;9.70;99.90;;;;;;10510137;28;20102;-64
2024/01/22 08:12:42;;;;;;;150.60;23.57;;;9.70;99.90;;;;;;10511329;28;20067;-65
2024/01/22 08:17:46;;;;;;;132.17;17.50;;;9.50;99.90;;;;;;10509621;28;20055;-65
2024/01/22 08:22:49;;;;;;;149.48;20.38;;;9.50;99.90;;;;;;10504339;28;20085;-64
2024/01/22 08:27:51;;;;;;;130.45;18.77;;;9.50;99.90;;;;;;10514464;28;20529;-65
2024/01/22 08:32:55;;;;;;;112.85;17.08;;;9.40;99.90;;;;;;10513006;28;20087;-65
2024/01/22 08:37:57;;;;;;;129.77;18.48;;;9.50;99.90;;;;;;10510903;28;20047;-64
2024/01/22 08:42:59;;;;;;;106.35;11.15;;;9.50;99.90;;;;;;10515752;28;20047;-64
2024/01/22 08:48:03;;;;;;;0.20;0.20;;;9.40;99.90;;;;;;10503656;28;20063;-64
2024/01/22 08:53:05;;;;;;;1.20;1.20;;;9.30;99.90;;;;;;10514899;28;20048;-65
2024/01/22 08:58:09;;;;;;;0.20;0.20;;;9.20;99.90;;;;;;10517031;28;20075;-64
2024/01/22 09:03:14;;;;;;;0.20;0.20;;;9.10;99.90;;;;;;10521346;28;20048;-64
2024/01/22 09:08:15;;;;;;;10.43;2.95;;;9.10;99.90;;;;;;10516923;28;20056;-64
2024/01/22 09:13:17;;;;;;;62.55;7.70;;;9.00;99.90;;;;;;10520305;28;20139;-63
2024/01/22 09:18:21;;;;;;;65.07;8.05;;;8.80;99.90;;;;;;10516554;28;20048;-63
2024/01/22 09:23:23;;;;;;;40.65;5.97;;;8.80;99.90;;;;;;10519091;28;20048;-64
2024/01/22 09:28:30;;;;;;;69.53;9.20;;;8.90;99.90;;;;;;10512491;28;20071;-64
2024/01/22 09:33:34;;;;;;;50.20;7.05;;;8.80;99.90;;;;;;10518460;28;20490;-65
2024/01/22 09:38:37;;;;;;;47.53;7.30;;;8.90;99.90;;;;;;10519153;28;20108;-65
2024/01/22 09:43:40;;;;;;;;;;;8.80;99.90;;;;;;10510882;28;20044;-64
2024/01/22 09:48:44;;;;;;;43.95;5.32;;;8.90;99.90;;;;;;10522813;28;19927;-66
2024/01/22 09:53:48;;;;;;;45.42;6.57;;;9.00;99.90;;;;;;10517391;28;20043;-64
2024/01/22 09:58:55;;;;;;;44.15;7.25;;;9.00;99.90;;;;;;10517286;28;20056;-64
2024/01/22 10:03:59;;;;;;;47.47;6.68;;;9.00;99.90;;;;;;10522144;28;20086;-63
2024/01/22 10:09:01;;;;;;;45.08;7.65;;;9.20;99.90;;;;;;10520457;28;20197;-65
2024/01/22 10:14:03;;;;;;;52.67;8.20;;;9.10;99.90;;;;;;10519321;28;20059;-64
2024/01/22 10:19:09;;;;;;;43.58;6.05;;;9.10;99.90;;;;;;10516510;28;20079;-64
2024/01/22 10:24:11;;;;;;;34.50;5.60;;;9.20;99.90;;;;;;10514574;28;20059;-64
2024/01/22 10:29:16;;;;;;;39.13;6.35;;;9.30;99.90;;;;;;10523813;28;20047;-65
2024/01/22 10:34:19;;;;;;;34.28;8.32;;;9.30;99.90;;;;;;10516313;28;20044;-64
2024/01/22 10:39:21;;;;;;;29.80;4.15;;;9.50;99.90;;;;;;10512684;28;20069;-65
2024/01/22 10:44:24;;;;;;;32.87;5.83;;;9.50;99.90;;;;;;10513993;28;20048;-65
2024/01/22 10:49:29;;;;;;;45.53;6.03;;;9.60;99.90;;;;;;10523385;28;20875;-64
2024/01/22 10:54:32;;;;;;;29.98;4.53;;;9.60;99.90;;;;;;10516333;28;20192;-64
2024/01/22 10:59:37;;;;;;;46.85;6.15;;;9.70;99.90;;;;;;10516309;28;20052;-65
2024/01/22 11:04:47;;;;;;;49.20;7.15;;;9.60;99.90;;;;;;10513827;28;20502;-65
2024/01/22 11:09:51;;;;;;;50.70;8.80;;;9.50;99.90;;;;;;10516671;28;20142;-65
2024/01/22 11:14:53;;;;;;;47.03;8.15;;;9.70;99.90;;;;;;10514276;28;20056;-64
2024/01/22 11:20:14;;;;;;;46.08;7.47;;;9.70;99.90;;;;;;10519439;28;20667;-63
2024/01/22 11:25:17;;;;;;;27.15;5.03;;;9.80;99.90;;;;;;10512017;28;20044;-65
2024/01/22 11:30:28;;;;;;;46.13;5.67;;;9.80;99.90;;;;;;10515488;28;20052;-65
2024/01/22 11:35:44;;;;;;;32.15;5.55;;;9.80;99.90;;;;;;10513304;28;20568;-64
2024/01/22 11:40:47;;;;;;;38.75;7.63;;;9.80;99.90;;;;;;10515187;28;20097;-64
2024/01/22 11:45:53;;;;;;;46.30;9.73;;;9.80;99.90;;;;;;10516199;28;20540;-64
2024/01/22 11:51:00;;;;;;;53.70;8.57;;;10.00;99.90;;;;;;10516636;28;20047;-65
2024/01/22 11:56:04;;;;;;;31.23;5.53;;;9.90;99.90;;;;;;10512841;28;23097;-64
2024/01/22 12:01:09;;;;;;;48.13;6.03;;;9.80;99.90;;;;;;10513375;28;20079;-64
2024/01/22 12:06:13;;;;;;;39.30;6.25;;;9.90;99.90;;;;;;10514345;28;20554;-64
2024/01/22 12:11:16;;;;;;;43.05;6.05;;;10.00;99.90;;;;;;10509533;28;20059;-64
2024/01/22 12:16:20;;;;;;;34.95;6.05;;;9.80;99.90;;;;;;10515378;28;20221;-64
2024/01/22 12:21:23;;;;;;;62.95;9.13;;;10.00;99.90;;;;;;10511640;28;20056;-64
2024/01/22 12:26:25;;;;;;;47.10;6.78;;;9.80;99.90;;;;;;10508262;28;20052;-64
2024/01/22 12:31:27;;;;;;;54.53;9.35;;;10.30;99.90;;;;;;10513255;28;20059;-63
2024/01/22 12:36:31;;;;;;;83.35;14.25;;;10.00;99.90;;;;;;10517803;28;20915;-63
2024/01/22 12:41:35;;;;;;;81.15;13.50;;;9.90;99.90;;;;;;10525786;28;20055;-64
2024/01/22 12:46:36;;;;;;;65.68;10.75;;;9.90;99.90;;;;;;10522240;28;20058;-63
2024/01/22 12:51:40;;;;;;;75.05;13.63;;;10.00;99.90;;;;;;10521880;27;20051;-65
2024/01/22 12:56:42;;;;;;;55.65;7.53;;;10.00;99.90;;;;;;10515174;28;20540;-66
2024/01/22 13:01:44;;;;;;;56.22;8.90;;;10.20;99.90;;;;;;10526751;28;20415;-64
2024/01/22 13:06:49;;;;;;;52.17;8.38;;;10.20;99.90;;;;;;10518237;28;20048;-65
2024/01/22 13:11:51;;;;;;;47.42;8.40;;;10.40;99.90;;;;;;10518084;28;20055;-64
2024/01/22 13:16:53;;;;;;;45.38;5.85;;;10.30;99.90;;;;;;10518692;28;20043;-63
2024/01/22 13:21:58;;;;;;;68.17;9.47;;;10.30;99.90;;;;;;10518678;28;20059;-65
2024/01/22 13:27:01;;;;;;;65.80;9.48;;;10.40;99.90;;;;;;10520416;28;20143;-65
2024/01/22 13:32:04;;;;;;;;;;;10.60;99.90;;;;;;10517474;28;20129;-66
2024/01/22 13:37:07;;;;;;;53.03;9.35;;;10.60;99.90;;;;;;10523129;28;19931;-66
2024/01/22 13:42:10;;;;;;;55.03;10.15;;;10.50;99.90;;;;;;10518925;28;20139;-64
2024/01/22 13:47:12;;;;;;;65.47;8.30;;;10.50;99.90;;;;;;10520418;28;20047;-65
2024/01/22 13:52:15;;;;;;;48.88;8.60;;;10.30;99.90;;;;;;10522731;28;20051;-65
2024/01/22 13:57:18;;;;;;;58.60;10.50;;;10.20;99.90;;;;;;10517435;28;20602;-65
2024/01/22 14:02:21;;;;;;;64.68;8.63;;;10.50;99.90;;;;;;10525078;28;22672;-64
2024/01/22 14:07:24;;;;;;;48.05;7.57;;;10.30;99.90;;;;;;10522203;28;20048;-64
2024/01/22 14:12:26;;;;;;;45.53;7.50;;;10.50;99.90;;;;;;10516073;28;20187;-65
2024/01/22 14:17:28;;;;;;;61.08;10.07;;;10.90;99.90;;;;;;10514635;28;20150;-66
2024/01/22 14:22:33;;;;;;;55.92;7.38;;;10.60;99.90;;;;;;10520153;28;20098;-65
2024/01/22 14:27:35;;;;;;;72.15;13.60;;;10.60;99.90;;;;;;10511789;28;20955;-65
2024/01/22 14:32:38;;;;;;;42.17;7.50;;;10.40;99.90;;;;;;10516854;28;21136;-67
2024/01/22 14:37:41;;;;;;;66.50;9.77;;;10.40;99.90;;;;;;10517159;28;20442;-63
2024/01/22 14:42:43;;;;;;;74.75;13.82;;;10.50;99.90;;;;;;10521416;28;20055;-68
2024/01/22 14:47:46;;;;;;;66.85;9.65;;;10.60;99.90;;;;;;10518258;28;20420;-66
2024/01/22 14:52:49;;;;;;;65.55;9.70;;;10.30;99.90;;;;;;10510687;28;20793;-65
2024/01/22 14:57:51;;;;;;;70.72;12.00;;;10.30;99.90;;;;;;10514674;28;20048;-65
2024/01/22 15:02:55;;;;;;;69.65;10.30;;;10.40;99.90;;;;;;10515023;28;20140;-67
2024/01/22 15:07:59;;;;;;;39.97;7.00;;;10.40;99.90;;;;;;10526179;28;20144;-65
2024/01/22 15:13:02;;;;;;;63.03;9.10;;;10.60;99.90;;;;;;10553313;27;20173;-66
2024/01/22 15:18:04;;;;;;;61.97;10.77;;;10.20;99.90;;;;;;10523747;28;20051;-64
2024/01/22 15:23:07;;;;;;;85.82;12.63;;;10.20;99.90;;;;;;10525420;28;20055;-65
2024/01/22 15:28:09;;;;;;;45.22;7.50;;;9.90;99.90;;;;;;10519442;28;20063;-66
2024/01/22 15:33:13;;;;;;;66.25;8.63;;;10.00;99.90;;;;;;10527147;28;20046;-65
2024/01/22 15:38:17;;;;;;;60.63;6.00;;;9.80;99.90;;;;;;10520946;28;20047;-65
2024/01/22 15:43:20;;;;;;;64.43;8.93;;;10.00;99.90;;;;;;10524737;28;20187;-67
2024/01/22 15:48:22;;;;;;;66.30;9.50;;;9.40;99.90;;;;;;10519364;28;20841;-65
2024/01/22 15:53:26;;;;;;;64.47;8.60;;;9.40;99.90;;;;;;10522980;28;20036;-66
2024/01/22 15:58:28;;;;;;;69.28;11.38;;;9.20;99.90;;;;;;10520490;28;20162;-65
2024/01/22 16:03:30;;;;;;;72.38;10.82;;;9.10;99.90;;;;;;10515422;28;20077;-65
2024/01/22 16:08:35;;;;;;;66.75;8.10;;;9.00;99.90;;;;;;10519853;28;20051;-65
2024/01/22 16:13:37;;;;;;;66.22;10.80;;;9.00;99.90;;;;;;10515999;28;20052;-64
2024/01/22 16:18:41;;;;;;;62.45;10.23;;;8.80;99.90;;;;;;10521092;28;20596;-65
2024/01/22 16:23:44;;;;;;;64.40;9.40;;;8.60;99.90;;;;;;10504205;28;20521;-64
2024/01/22 16:28:46;;;;;;;65.57;9.57;;;8.70;99.90;;;;;;10510367;28;20767;-66
2024/01/22 16:33:48;;;;;;;54.55;8.35;;;8.60;99.90;;;;;;10519929;28;20056;-65
2024/01/22 16:38:52;;;;;;;81.43;11.23;;;8.50;99.90;;;;;;10526529;28;20055;-65
2024/01/22 16:43:54;;;;;;;68.63;9.43;;;8.50;99.90;;;;;;10515080;28;20056;-65
2024/01/22 16:48:56;;;;;;;64.80;8.85;;;8.40;99.90;;;;;;10520441;28;20158;-65
2024/01/22 16:54:00;;;;;;;54.28;7.93;;;8.40;99.90;;;;;;10519372;28;20710;-65
2024/01/22 16:59:03;;;;;;;67.97;7.40;;;8.50;99.90;;;;;;10522539;28;20051;-64
2024/01/22 17:04:05;;;;;;;56.38;8.77;;;8.20;99.90;;;;;;10518711;28;20052;-65
2024/01/22 17:09:08;;;;;;;61.58;8.70;;;8.20;99.90;;;;;;10515758;28;20048;-65
2024/01/22 17:14:10;;;;;;;45.28;8.55;;;8.10;99.90;;;;;;10516803;28;20462;-65
2024/01/22 17:19:12;;;;;;;54.33;9.95;;;8.10;99.90;;;;;;10513735;28;20052;-65
2024/01/22 17:24:16;;;;;;;54.08;7.82;;;8.20;99.90;;;;;;10516721;28;20051;-65
2024/01/22 17:29:18;;;;;;;54.00;7.55;;;8.10;99.90;;;;;;10526242;28;20064;-65
2024/01/22 17:34:20;;;;;;;44.30;8.70;;;8.30;99.90;;;;;;10516367;28;20072;-65
2024/01/22 17:39:24;;;;;;;59.22;8.52;;;8.20;99.90;;;;;;10521877;28;20066;-64
2024/01/22 17:44:26;;;;;;;30.85;4.90;;;8.20;99.90;;;;;;10512775;28;20056;-65
2024/01/22 17:49:28;;;;;;;56.13;7.78;;;8.20;99.90;;;;;;10514453;28;20601;-64
2024/01/22 17:54:31;;;;;;;62.47;8.02;;;8.40;99.90;;;;;;10516351;28;20495;-65
2024/01/22 17:59:35;;;;;;;49.60;6.97;;;8.20;99.90;;;;;;10511823;28;20051;-61
2024/01/22 18:04:39;;;;;;;73.03;10.13;;;8.30;99.90;;;;;;10516321;28;20366;-63
2024/01/22 18:09:43;;;;;;;50.15;6.80;;;8.10;99.90;;;;;;10511978;28;20087;-64
2024/01/22 18:14:46;;;;;;;70.05;9.32;;;8.10;99.90;;;;;;10517624;28;20043;-66
2024/01/22 18:19:48;;;;;;;;;;;7.90;99.90;;;;;;10523942;28;20055;-65
2024/01/22 18:24:51;;;;;;;67.57;8.10;;;7.90;99.90;;;;;;10520082;28;19920;-64
2024/01/22 18:29:54;;;;;;;39.88;6.13;;;7.90;99.90;;;;;;10512867;28;20079;-65
2024/01/22 18:34:56;;;;;;;53.28;8.27;;;8.10;99.90;;;;;;10511480;28;20100;-63
2024/01/22 18:40:02;;;;;;;56.07;9.50;;;8.00;99.90;;;;;;10519504;28;20060;-64
2024/01/22 18:45:04;;;;;;;58.00;8.90;;;7.90;99.90;;;;;;10509477;28;20086;-64
2024/01/22 18:50:07;;;;;;;71.80;12.13;;;7.90;99.90;;;;;;10512225;28;20048;-63
2024/01/22 18:55:12;;;;;;;76.43;11.07;;;7.90;99.90;;;;;;10505034;28;21126;-63
2024/01/22 19:00:15;;;;;;;43.60;5.95;;;7.90;99.90;;;;;;10512785;28;20162;-63
2024/01/22 19:05:17;;;;;;;73.50;10.35;;;7.90;99.90;;;;;;10520465;28;20558;-62
2024/01/22 19:10:21;;;;;;;81.15;10.48;;;7.70;99.90;;;;;;10518043;28;20056;-63
2024/01/22 19:15:23;;;;;;;79.25;14.23;;;7.80;99.90;;;;;;10518399;28;20048;-65
2024/01/22 19:20:27;;;;;;;67.47;9.82;;;8.00;99.90;;;;;;10515859;28;20044;-63
2024/01/22 19:25:32;;;;;;;55.88;8.32;;;8.20;99.90;;;;;;10504643;28;20048;-63
2024/01/22 19:30:34;;;;;;;34.45;5.15;;;8.40;99.90;;;;;;10510527;28;20078;-64
2024/01/22 19:35:36;;;;;;;69.03;9.95;;;8.30;99.90;;;;;;10506930;28;20858;-63
2024/01/22 19:40:40;;;;;;;41.72;6.78;;;8.20;99.90;;;;;;10505709;28;20089;-64
2024/01/22 19:45:44;;;;;;;91.03;11.85;;;8.30;99.90;;;;;;10501301;28;20056;-64
2024/01/22 19:50:47;;;;;;;52.97;8.10;;;8.30;99.90;;;;;;10510100;28;20965;-64
2024/01/22 19:55:50;;;;;;;66.88;9.55;;;8.30;99.90;;;;;;10508994;28;20051;-63
2024/01/22 20:00:53;;;;;;;61.63;8.68;;;8.20;99.90;;;;;;10506004;28;20427;-64
2024/01/22 20:05:55;;;;;;;63.83;9.57;;;8.30;99.90;;;;;;10511095;28;20419;-65
2024/01/22 20:10:58;;;;;;;62.28;7.30;;;8.10;99.90;;;;;;10504552;28;20066;-62
2024/01/22 20:16:03;;;;;;;37.30;4.78;;;8.00;99.90;;;;;;10509402;28;22773;-64
2024/01/22 20:21:05;;;;;;;57.40;9.52;;;8.20;99.90;;;;;;10510635;28;20059;-62
2024/01/22 20:26:09;;;;;;;56.87;9.03;;;7.90;99.90;;;;;;10500065;28;20097;-63
2024/01/22 20:31:11;;;;;;;40.35;6.40;;;7.70;99.90;;;;;;10499691;28;20762;-61
2024/01/22 20:36:15;;;;;;;47.10;7.13;;;8.10;99.90;;;;;;10512434;28;20056;-63
2024/01/22 20:41:19;;;;;;;36.83;4.88;;;8.00;99.90;;;;;;10508116;28;20633;-63
2024/01/22 20:46:21;;;;;;;39.50;6.72;;;8.00;99.90;;;;;;10503853;28;20050;-63
2024/01/22 20:51:23;;;;;;;20.27;5.47;;;8.00;99.90;;;;;;10512928;28;20078;-63
2024/01/22 20:56:27;;;;;;;31.38;5.22;;;7.90;99.90;;;;;;10513010;28;20514;-65
2024/01/22 21:01:29;;;;;;;38.35;6.30;;;8.10;99.90;;;;;;10521149;28;20071;-63
2024/01/22 21:06:31;;;;;;;36.72;5.78;;;8.30;99.90;;;;;;10519280;28;20052;-62
2024/01/22 21:11:36;;;;;;;39.20;5.10;;;8.10;99.90;;;;;;10518721;28;20115;-63
2024/01/22 21:16:38;;;;;;;32.55;6.68;;;8.20;99.90;;;;;;10516184;28;20048;-63
2024/01/22 21:21:42;;;;;;;34.72;6.15;;;8.30;99.90;;;;;;10508061;28;20059;-64
2024/01/22 21:26:47;;;;;;;32.60;6.97;;;8.30;99.90;;;;;;10516226;28;20103;-64
2024/01/22 21:31:50;;;;;;;34.45;6.90;;;8.40;99.90;;;;;;10512208;28;20397;-63
2024/01/22 21:36:51;;;;;;;30.65;4.93;;;8.50;99.90;;;;;;10512609;28;20055;-63
2024/01/22 21:41:55;;;;;;;36.35;6.40;;;8.50;99.90;;;;;;10518991;28;20138;-64
2024/01/22 21:46:57;;;;;;;33.50;6.35;;;8.70;99.90;;;;;;10522605;28;20143;-64
2024/01/22 21:51:59;;;;;;;25.30;4.53;;;8.50;99.90;;;;;;10530318;28;20051;-62
2024/01/22 21:57:06;;;;;;;24.08;4.22;;;8.30;99.90;;;;;;10522748;28;20048;-63
2024/01/22 22:02:08;;;;;;;13.40;3.35;;;8.10;99.90;;;;;;10523299;28;20279;-63
2024/01/22 22:07:10;;;;;;;15.98;2.47;;;8.20;99.90;;;;;;10523539;28;20047;-63
2024/01/22 22:12:14;;;;;;;22.03;4.90;;;8.10;99.90;;;;;;10528041;28;20155;-65
2024/01/22 22:17:16;;;;;;;17.15;2.38;;;7.90;99.90;;;;;;10524966;28;20046;-62
2024/01/22 22:22:19;;;;;;;23.70;4.53;;;8.10;99.90;;;;;;10528132;28;20059;-61
2024/01/22 22:27:22;;;;;;;19.63;3.47;;;7.90;99.90;;;;;;10536467;28;20172;-64
2024/01/22 22:32:24;;;;;;;12.52;2.30;;;8.10;99.90;;;;;;10529405;28;20162;-61
2024/01/22 22:37:26;;;;;;;25.17;5.38;;;8.00;99.90;;;;;;10527682;28;20035;-62
2024/01/22 22:42:30;;;;;;;31.63;5.75;;;8.20;99.90;;;;;;10522314;28;20064;-62
2024/01/22 22:47:35;;;;;;;28.83;6.40;;;8.20;99.90;;;;;;10519441;28;20071;-62
2024/01/22 22:52:37;;;;;;;32.22;6.20;;;8.30;99.90;;;;;;10524346;28;20066;-64
2024/01/22 22:57:40;;;;;;;41.28;6.28;;;8.20;99.90;;;;;;10525971;28;20110;-62
2024/01/22 23:02:42;;;;;;;36.30;5.38;;;8.30;99.90;;;;;;10518556;28;20090;-63
2024/01/22 23:07:44;;;;;;;30.73;4.82;;;8.40;99.90;;;;;;10525843;28;20051;-63
2024/01/22 23:12:48;;;;;;;37.17;5.53;;;8.30;99.90;;;;;;10524186;28;20151;-62
2024/01/22 23:17:50;;;;;;;29.38;5.53;;;8.30;99.90;;;;;;10522921;28;20869;-63
2024/01/22 23:22:52;;;;;;;35.05;5.47;;;8.30;99.90;;;;;;10528616;28;20058;-64
2024/01/22 23:27:55;;;;;;;57.88;7.28;;;8.30;99.90;;;;;;10530227;28;20129;-62
2024/01/22 23:32:57;;;;;;;32.72;6.57;;;8.20;99.90;;;;;;10527132;28;20187;-61
2024/01/22 23:38:00;;;;;;;44.33;7.55;;;8.30;99.90;;;;;;10524798;28;20840;-62
2024/01/22 23:43:04;;;;;;;44.05;6.32;;;8.20;99.90;;;;;;10521916;28;20048;-62
2024/01/22 23:48:10;;;;;;;36.45;5.55;;;8.30;99.90;;;;;;10522767;28;20052;-62
2024/01/22 23:53:12;;;;;;;45.88;7.18;;;8.30;99.90;;;;;;10524226;28;20044;-64
2024/01/22 23:58:18;;;;;;;42.42;6.30;;;8.20;99.90;;;;;;10525536;28;20047;-62
